createdAt,value
2022-09-29T00:01:13.277Z,2.90
2022-09-29T00:03:41.352Z,3.50
2022-09-29T00:06:13.223Z,2.70
2022-09-29T00:08:44.672Z,3.17
2022-09-29T00:11:13.551Z,2.53
2022-09-29T00:13:42.993Z,2.60
2022-09-29T00:16:11.373Z,2.90
2022-09-29T00:18:39.660Z,2.80
2022-09-29T00:21:10.814Z,2.57
2022-09-29T00:23:39.095Z,2.67
2022-09-29T00:26:08.081Z,2.47
2022-09-29T00:28:36.573Z,2.37
2022-09-29T00:31:06.340Z,2.53
2022-09-29T00:33:34.927Z,2.83
2022-09-29T00:36:03.786Z,3.03
2022-09-29T00:38:32.232Z,3.20
2022-09-29T00:41:00.415Z,3.03
2022-09-29T00:43:53.470Z,2.67
2022-09-29T00:46:25.864Z,2.70
2022-09-29T00:48:54.473Z,2.80
2022-09-29T00:51:22.534Z,2.47
2022-09-29T00:53:50.613Z,2.50
2022-09-29T00:56:18.670Z,2.97
2022-09-29T00:58:54.732Z,2.93
2022-09-29T01:01:24.353Z,2.93
2022-09-29T01:03:54.312Z,2.50
2022-09-29T01:06:24.145Z,2.80
2022-09-29T01:08:55.169Z,2.50
2022-09-29T01:11:23.447Z,3.20
2022-09-29T01:13:51.512Z,2.20
2022-09-29T01:16:19.597Z,3.10
2022-09-29T01:18:49.047Z,2.90
2022-09-29T01:21:20.746Z,4.47
2022-09-29T01:24:15.179Z,2.87
2022-09-29T01:27:04.137Z,2.90
2022-09-29T01:29:50.228Z,2.63
2022-09-29T01:32:21.978Z,3.30
2022-09-29T01:34:53.756Z,3.17
2022-09-29T01:37:24.631Z,2.90
2022-09-29T01:39:55.667Z,2.60
2022-09-29T01:42:25.370Z,2.93
2022-09-29T01:44:54.813Z,2.73
2022-09-29T01:47:24.829Z,2.60
2022-09-29T01:49:55.365Z,2.77
2022-09-29T01:52:24.750Z,3.60
2022-09-29T01:54:54.516Z,3.20
2022-09-29T01:57:24.828Z,3.23
2022-09-29T01:59:53.877Z,2.77
2022-09-29T02:02:25.710Z,4.03
2022-09-29T02:04:55.708Z,2.90
2022-09-29T02:07:26.451Z,3.20
2022-09-29T02:09:59.214Z,2.93
2022-09-29T02:12:27.571Z,3.00
2022-09-29T02:14:55.680Z,3.37
2022-09-29T02:17:27.451Z,2.93
2022-09-29T02:19:55.618Z,2.80
2022-09-29T02:22:23.686Z,3.20
2022-09-29T02:24:52.997Z,3.00
2022-09-29T02:27:21.123Z,3.07
2022-09-29T02:29:49.499Z,3.07
2022-09-29T02:32:17.613Z,3.30
2022-09-29T02:34:48.015Z,3.20
2022-09-29T02:37:33.283Z,3.33
2022-09-29T02:40:07.889Z,3.30
2022-09-29T02:42:40.241Z,2.90
2022-09-29T02:45:22.632Z,3.30
2022-09-29T02:48:09.643Z,3.87
2022-09-29T02:51:13.894Z,3.23
2022-09-29T02:53:48.904Z,4.70
2022-09-29T02:56:21.416Z,4.73
2022-09-29T02:58:52.561Z,2.90
2022-09-29T03:01:20.642Z,3.50
2022-09-29T03:03:50.814Z,3.63
2022-09-29T03:06:21.357Z,3.43
2022-09-29T03:08:50.798Z,4.73
2022-09-29T03:11:18.867Z,3.93
2022-09-29T03:13:46.954Z,2.87
2022-09-29T03:16:15.077Z,3.10
2022-09-29T03:18:44.168Z,3.23
2022-09-29T03:21:12.457Z,2.80
2022-09-29T03:23:42.509Z,3.20
2022-09-29T03:26:10.571Z,2.80
2022-09-29T03:28:38.653Z,2.90
2022-09-29T03:31:07.987Z,3.23
2022-09-29T03:33:37.053Z,3.30
2022-09-29T03:36:09.889Z,2.87
2022-09-29T03:38:38.915Z,2.97
2022-09-29T03:41:08.448Z,3.07
2022-09-29T03:43:36.521Z,4.10
2022-09-29T03:46:04.652Z,3.10
2022-09-29T03:48:35.129Z,2.97
2022-09-29T03:51:03.884Z,3.30
2022-09-29T03:53:31.929Z,3.50
2022-09-29T03:55:59.997Z,2.83
2022-09-29T03:58:29.425Z,3.63
2022-09-29T04:00:57.526Z,5.20
2022-09-29T04:03:25.633Z,3.97
2022-09-29T04:05:53.678Z,3.57
2022-09-29T04:08:21.732Z,2.90
2022-09-29T04:10:50.853Z,3.30
2022-09-29T04:13:20.194Z,2.73
2022-09-29T04:15:49.886Z,3.40
2022-09-29T04:18:17.929Z,3.53
2022-09-29T04:20:45.994Z,3.27
2022-09-29T04:23:14.071Z,3.23
2022-09-29T04:25:42.161Z,6.80
2022-09-29T04:28:10.228Z,4.60
2022-09-29T04:30:38.314Z,3.20
2022-09-29T04:33:07.763Z,3.47
2022-09-29T04:35:37.033Z,3.20
2022-09-29T04:38:05.296Z,3.13
2022-09-29T04:40:33.412Z,2.93
2022-09-29T04:43:01.479Z,4.60
2022-09-29T04:45:29.702Z,3.37
2022-09-29T04:47:57.826Z,3.93
2022-09-29T04:50:27.262Z,3.47
2022-09-29T04:52:55.338Z,2.90
2022-09-29T04:55:23.441Z,2.97
2022-09-29T04:57:51.524Z,3.33
2022-09-29T05:00:21.523Z,4.37
2022-09-29T05:02:50.100Z,3.40
2022-09-29T05:05:18.367Z,3.27
2022-09-29T05:07:48.573Z,3.60
2022-09-29T05:10:16.741Z,4.07
2022-09-29T05:12:49.976Z,3.47
2022-09-29T05:15:22.122Z,3.37
2022-09-29T05:17:56.890Z,3.03
2022-09-29T05:20:25.001Z,4.20
2022-09-29T05:22:54.459Z,3.43
2022-09-29T05:25:27.286Z,3.53
2022-09-29T05:27:55.536Z,3.83
2022-09-29T05:30:23.615Z,3.43
2022-09-29T05:32:56.848Z,8.03
2022-09-29T05:35:26.962Z,3.57
2022-09-29T05:37:56.381Z,3.40
2022-09-29T05:40:25.169Z,3.20
2022-09-29T05:42:53.251Z,3.37
2022-09-29T05:45:21.358Z,3.20
2022-09-29T05:47:49.416Z,3.63
2022-09-29T05:50:17.678Z,3.37
2022-09-29T05:52:49.217Z,3.30
2022-09-29T05:55:19.079Z,3.30
2022-09-29T05:57:49.424Z,4.97
2022-09-29T06:00:17.798Z,3.30
2022-09-29T06:02:45.878Z,3.23
2022-09-29T06:05:13.946Z,3.10
2022-09-29T06:07:42.011Z,2.97
2022-09-29T06:10:10.614Z,3.73
2022-09-29T06:12:40.076Z,3.50
2022-09-29T06:15:08.787Z,3.20
2022-09-29T06:17:36.853Z,3.10
2022-09-29T06:20:05.803Z,3.30
2022-09-29T06:22:34.034Z,3.27
2022-09-29T06:25:02.103Z,3.63
2022-09-29T06:27:30.199Z,3.90
2022-09-29T06:30:00.618Z,3.53
2022-09-29T06:32:28.939Z,3.17
2022-09-29T06:35:14.266Z,3.07
2022-09-29T06:37:43.176Z,3.87
2022-09-29T06:40:12.014Z,3.73
2022-09-29T06:42:40.069Z,3.77
2022-09-29T06:45:10.941Z,2.73
2022-09-29T06:47:39.012Z,4.00
2022-09-29T06:50:11.548Z,3.60
2022-09-29T06:53:03.369Z,3.60
2022-09-29T06:55:33.088Z,4.67
2022-09-29T06:58:04.053Z,3.20
2022-09-29T07:00:35.225Z,2.93
2022-09-29T07:03:03.458Z,3.37
2022-09-29T07:05:31.621Z,3.80
2022-09-29T07:08:01.210Z,2.83
2022-09-29T07:10:29.927Z,3.00
2022-09-29T07:12:57.991Z,3.00
2022-09-29T07:15:31.709Z,3.20
2022-09-29T07:18:01.930Z,3.10
2022-09-29T07:20:30.468Z,3.10
2022-09-29T07:22:58.855Z,3.00
2022-09-29T07:25:50.073Z,2.67
2022-09-29T07:28:15.128Z,2.67
2022-09-29T07:30:43.212Z,3.07
2022-09-29T07:33:12.681Z,3.30
2022-09-29T07:35:40.795Z,4.50
2022-09-29T07:38:08.807Z,2.90
2022-09-29T07:40:38.005Z,2.93
2022-09-29T07:43:07.675Z,4.00
2022-09-29T07:45:35.850Z,3.23
2022-09-29T07:48:04.010Z,2.90
2022-09-29T07:50:33.604Z,2.97
2022-09-29T07:53:01.648Z,2.80
2022-09-29T07:55:29.729Z,2.90
2022-09-29T07:58:03.009Z,3.33
2022-09-29T08:00:32.551Z,3.60
2022-09-29T08:03:03.400Z,2.17
2022-09-29T08:05:33.845Z,3.57
2022-09-29T08:08:02.261Z,2.87
2022-09-29T08:10:31.150Z,3.00
2022-09-29T08:12:59.313Z,4.20
2022-09-29T08:15:27.596Z,2.13
2022-09-29T08:17:55.751Z,4.23
2022-09-29T08:20:23.931Z,2.23
2022-09-29T08:22:53.852Z,3.00
2022-09-29T08:25:21.924Z,3.33
2022-09-29T08:27:55.311Z,3.00
2022-09-29T08:30:24.004Z,2.83
2022-09-29T08:32:55.224Z,2.50
2022-09-29T08:35:23.289Z,2.90
2022-09-29T08:37:51.344Z,2.33
2022-09-29T08:40:20.880Z,2.33
2022-09-29T08:42:57.201Z,2.63
2022-09-29T08:45:28.429Z,2.23
2022-09-29T08:47:57.302Z,2.70
2022-09-29T08:50:28.887Z,2.50
2022-09-29T08:52:58.942Z,2.90
2022-09-29T08:55:40.264Z,2.03
2022-09-29T08:58:10.676Z,2.27
2022-09-29T09:00:42.205Z,2.37
2022-09-29T09:03:32.741Z,2.70
2022-09-29T09:06:12.311Z,2.70
2022-09-29T09:08:51.029Z,2.23
2022-09-29T09:11:29.430Z,2.40
2022-09-29T09:14:04.309Z,2.53
2022-09-29T09:16:35.112Z,2.10
2022-09-29T09:19:28.731Z,2.10
2022-09-29T09:21:59.893Z,2.17
2022-09-29T09:24:29.847Z,2.33
2022-09-29T09:26:59.277Z,3.27
2022-09-29T09:29:37.704Z,1.50
2022-09-29T09:32:07.206Z,2.17
2022-09-29T09:34:43.795Z,2.33
2022-09-29T09:37:17.587Z,1.90
2022-09-29T09:39:48.219Z,2.47
2022-09-29T09:42:19.810Z,1.57
2022-09-29T09:44:52.650Z,2.20
2022-09-29T09:47:25.755Z,1.93
2022-09-29T09:49:55.456Z,3.53
2022-09-29T09:52:25.834Z,2.00
2022-09-29T09:54:58.664Z,2.07
2022-09-29T09:57:42.869Z,1.80
2022-09-29T10:00:12.742Z,2.27
2022-09-29T10:02:46.755Z,2.07
2022-09-29T10:05:15.559Z,1.80
2022-09-29T10:07:43.624Z,2.20
2022-09-29T10:10:17.263Z,2.17
2022-09-29T10:12:46.703Z,1.73
2022-09-29T10:15:19.904Z,2.00
2022-09-29T10:17:49.491Z,2.80
2022-09-29T10:20:29.897Z,1.70
2022-09-29T10:23:19.593Z,1.87
2022-09-29T10:25:53.499Z,1.83
2022-09-29T10:28:23.389Z,2.07
2022-09-29T10:30:51.601Z,2.40
2022-09-29T10:33:20.471Z,1.93
2022-09-29T10:35:48.769Z,1.70
2022-09-29T10:38:25.158Z,2.57
2022-09-29T10:40:58.323Z,1.90
2022-09-29T10:43:28.614Z,1.80
2022-09-29T10:45:58.787Z,1.63
2022-09-29T10:48:27.195Z,2.60
2022-09-29T10:50:57.732Z,1.70
2022-09-29T10:53:29.708Z,2.07
2022-09-29T10:55:57.981Z,2.17
2022-09-29T10:58:44.747Z,2.23
2022-09-29T11:01:18.888Z,1.77
2022-09-29T11:03:49.089Z,1.60
2022-09-29T11:06:17.147Z,1.60
2022-09-29T11:08:58.613Z,2.00
2022-09-29T11:11:27.941Z,1.80
2022-09-29T11:13:57.375Z,1.80
2022-09-29T11:16:29.558Z,2.07
2022-09-29T11:19:00.092Z,4.77
2022-09-29T11:21:58.928Z,1.20
2022-09-29T11:24:50.664Z,1.50
2022-09-29T11:27:25.349Z,1.53
2022-09-29T11:29:58.613Z,1.53
2022-09-29T11:32:35.370Z,2.00
2022-09-29T11:35:19.407Z,1.20
2022-09-29T11:38:01.227Z,1.50
2022-09-29T11:40:31.636Z,1.70
2022-09-29T11:43:08.484Z,1.53
2022-09-29T11:45:40.141Z,1.70
2022-09-29T11:48:40.742Z,1.27
2022-09-29T11:51:11.881Z,1.60
2022-09-29T11:53:47.648Z,1.90
2022-09-29T11:56:32.037Z,1.20
2022-09-29T11:59:11.238Z,2.00
2022-09-29T12:01:48.263Z,1.53
2022-09-29T12:04:22.754Z,1.10
2022-09-29T12:06:57.710Z,2.97
2022-09-29T12:09:51.282Z,1.67
2022-09-29T12:12:23.948Z,1.50
2022-09-29T12:15:02.318Z,2.00
2022-09-29T12:17:34.462Z,2.30
2022-09-29T12:20:04.350Z,1.63
2022-09-29T12:22:34.583Z,1.27
2022-09-29T12:25:13.956Z,3.13
2022-09-29T12:27:42.549Z,1.23
2022-09-29T12:30:17.103Z,1.70
2022-09-29T12:32:49.509Z,1.37
2022-09-29T12:35:19.921Z,1.47
2022-09-29T12:37:49.267Z,1.40
2022-09-29T12:40:20.716Z,1.67
2022-09-29T12:42:59.261Z,1.30
2022-09-29T12:45:34.865Z,1.20
2022-09-29T12:48:20.821Z,2.43
2022-09-29T12:50:51.513Z,3.10
2022-09-29T12:53:21.796Z,1.30
2022-09-29T12:55:51.784Z,2.70
2022-09-29T12:58:22.492Z,1.87
2022-09-29T13:00:53.230Z,1.10
2022-09-29T13:03:57.391Z,1.03
2022-09-29T13:06:58.077Z,2.80
2022-09-29T13:09:51.100Z,1.20
2022-09-29T13:12:28.308Z,1.37
2022-09-29T13:15:23.273Z,1.20
2022-09-29T13:18:01.100Z,1.50
2022-09-29T13:20:51.848Z,1.37
2022-09-29T13:23:31.569Z,0.90
2022-09-29T13:26:08.075Z,1.50
2022-09-29T13:28:37.592Z,1.77
2022-09-29T13:31:09.984Z,1.53
2022-09-29T13:33:38.139Z,1.17
2022-09-29T13:36:09.114Z,3.70
2022-09-29T13:38:45.294Z,1.00
2022-09-29T13:41:16.286Z,1.00
2022-09-29T13:44:06.699Z,1.10
2022-09-29T13:46:40.919Z,1.33
2022-09-29T13:49:17.036Z,1.70
2022-09-29T13:51:50.933Z,1.00
2022-09-29T13:54:26.777Z,1.50
2022-09-29T13:57:28.571Z,0.97
2022-09-29T14:00:25.991Z,1.20
2022-09-29T14:03:34.057Z,1.00
2022-09-29T14:06:39.576Z,1.00
2022-09-29T14:09:06.866Z,1.20
2022-09-29T14:11:36.175Z,1.77
2022-09-29T14:14:05.920Z,1.23
2022-09-29T14:16:46.988Z,1.03
2022-09-29T14:19:24.913Z,1.00
2022-09-29T14:21:54.713Z,4.63
2022-09-29T14:24:47.202Z,1.20
2022-09-29T14:27:33.947Z,1.10
2022-09-29T14:30:12.656Z,1.87
2022-09-29T14:32:42.464Z,1.00
2022-09-29T14:35:18.943Z,2.40
2022-09-29T14:37:47.272Z,1.60
2022-09-29T14:40:30.845Z,1.30
2022-09-29T14:43:25.837Z,1.47
2022-09-29T14:46:44.677Z,1.10
2022-09-29T14:49:57.201Z,1.70
2022-09-29T14:52:31.875Z,2.20
2022-09-29T14:55:05.132Z,1.40
2022-09-29T14:58:02.131Z,1.27
2022-09-29T15:00:35.423Z,3.20
2022-09-29T15:03:26.452Z,1.20
2022-09-29T15:06:05.741Z,2.40
2022-09-29T15:08:35.653Z,1.33
2022-09-29T15:11:04.043Z,1.20
2022-09-29T15:13:34.716Z,1.60
2022-09-29T15:16:05.144Z,1.47
2022-09-29T15:18:51.100Z,1.50
2022-09-29T15:21:21.121Z,0.90
2022-09-29T15:24:21.900Z,1.43
2022-09-29T15:26:49.956Z,1.00
2022-09-29T15:29:19.601Z,1.27
2022-09-29T15:31:49.701Z,1.90
2022-09-29T15:34:27.482Z,1.07
2022-09-29T15:36:56.961Z,1.07
2022-09-29T15:39:43.610Z,1.27
2022-09-29T15:42:15.363Z,1.30
2022-09-29T15:44:49.185Z,1.87
2022-09-29T15:47:22.691Z,1.13
2022-09-29T15:49:52.447Z,0.93
2022-09-29T15:52:23.291Z,1.07
2022-09-29T15:54:55.395Z,1.90
2022-09-29T15:57:47.225Z,1.30
2022-09-29T16:00:46.441Z,1.47
2022-09-29T16:03:17.025Z,1.00
2022-09-29T16:05:57.387Z,1.40
2022-09-29T16:08:26.172Z,1.30
2022-09-29T16:10:55.594Z,1.30
2022-09-29T16:13:26.051Z,1.30
2022-09-29T16:15:56.810Z,1.30
2022-09-29T16:18:25.835Z,1.10
2022-09-29T16:20:56.819Z,1.23
2022-09-29T16:23:28.532Z,2.90
2022-09-29T16:26:19.105Z,1.10
2022-09-29T16:29:07.836Z,3.10
2022-09-29T16:31:38.081Z,1.63
2022-09-29T16:34:06.993Z,1.47
2022-09-29T16:36:36.859Z,1.43
2022-09-29T16:39:05.507Z,1.50
2022-09-29T16:41:37.911Z,1.23
2022-09-29T16:44:09.714Z,1.30
2022-09-29T16:46:45.192Z,1.90
2022-09-29T16:49:21.169Z,1.33
2022-09-29T16:51:50.025Z,1.30
2022-09-29T16:54:20.592Z,1.20
2022-09-29T16:56:49.869Z,1.30
2022-09-29T16:59:19.058Z,1.00
2022-09-29T17:01:48.798Z,1.80
2022-09-29T17:04:17.237Z,1.70
2022-09-29T17:06:47.533Z,1.47
2022-09-29T17:09:19.352Z,1.47
2022-09-29T17:11:49.575Z,1.57
2022-09-29T17:14:18.511Z,2.10
2022-09-29T17:16:53.058Z,1.70
2022-09-29T17:19:22.280Z,1.70
2022-09-29T17:21:50.565Z,2.33
2022-09-29T17:24:18.711Z,2.70
2022-09-29T17:27:04.938Z,2.00
2022-09-29T17:29:33.164Z,2.10
2022-09-29T17:32:09.141Z,2.37
2022-09-29T17:34:37.190Z,2.33
2022-09-29T17:37:05.290Z,2.53
2022-09-29T17:39:33.523Z,2.40
2022-09-29T17:42:01.654Z,2.90
2022-09-29T17:44:30.053Z,2.30
2022-09-29T17:47:11.223Z,2.60
2022-09-29T17:49:50.900Z,2.43
2022-09-29T17:52:19.920Z,2.40
2022-09-29T17:54:48.373Z,1.93
2022-09-29T17:57:29.293Z,5.00
2022-09-29T17:59:58.368Z,2.80
2022-09-29T18:02:27.618Z,3.13
2022-09-29T18:04:57.093Z,2.83
2022-09-29T18:07:25.577Z,3.50
2022-09-29T18:09:53.702Z,3.03
2022-09-29T18:12:21.776Z,3.07
2022-09-29T18:14:49.911Z,4.93
2022-09-29T18:17:18.027Z,3.20
2022-09-29T18:19:46.414Z,3.10
2022-09-29T18:22:15.923Z,2.97
2022-09-29T18:24:44.044Z,3.20
2022-09-29T18:27:14.891Z,3.53
2022-09-29T18:29:43.056Z,2.90
2022-09-29T18:32:14.198Z,3.43
2022-09-29T18:34:42.568Z,4.53
2022-09-29T18:37:11.042Z,3.33
2022-09-29T18:39:40.470Z,3.83
2022-09-29T18:42:16.159Z,9.80
2022-09-29T18:44:44.536Z,4.13
2022-09-29T18:47:13.283Z,3.50
2022-09-29T18:49:41.566Z,3.80
2022-09-29T18:52:10.174Z,3.63
2022-09-29T18:54:38.380Z,4.40
2022-09-29T18:57:07.975Z,4.20
2022-09-29T18:59:36.593Z,3.80
2022-09-29T19:02:04.810Z,4.10
2022-09-29T19:04:32.925Z,4.43
2022-09-29T19:07:01.010Z,4.20
2022-09-29T19:09:29.396Z,4.73
2022-09-29T19:11:57.517Z,4.77
2022-09-29T19:14:26.998Z,4.20
2022-09-29T19:16:57.604Z,3.80
2022-09-29T19:19:25.784Z,4.60
2022-09-29T19:21:53.862Z,4.17
2022-09-29T19:24:24.194Z,4.20
2022-09-29T19:26:52.309Z,3.63
2022-09-29T19:29:20.505Z,4.10
2022-09-29T19:31:50.047Z,3.77
2022-09-29T19:34:18.135Z,4.43
2022-09-29T19:36:46.254Z,3.93
2022-09-29T19:39:14.586Z,4.03
2022-09-29T19:41:42.779Z,4.00
2022-09-29T19:44:10.886Z,6.93
2022-09-29T19:46:39.037Z,3.90
2022-09-29T19:49:08.533Z,4.00
2022-09-29T19:51:52.789Z,3.90
2022-09-29T19:54:22.182Z,4.00
2022-09-29T19:56:51.224Z,4.03
2022-09-29T19:59:20.338Z,4.80
2022-09-29T20:01:50.239Z,5.03
2022-09-29T20:04:22.659Z,4.50
2022-09-29T20:06:52.759Z,4.70
2022-09-29T20:09:20.911Z,5.73
2022-09-29T20:11:49.909Z,7.67
2022-09-29T20:14:18.957Z,3.87
2022-09-29T20:16:47.314Z,3.93
2022-09-29T20:19:16.565Z,3.83
2022-09-29T20:21:46.381Z,4.07
2022-09-29T20:24:15.902Z,3.83
2022-09-29T20:26:44.356Z,3.40
2022-09-29T20:29:12.476Z,6.13
2022-09-29T20:31:45.863Z,5.17
2022-09-29T20:34:14.229Z,5.27
2022-09-29T20:36:42.312Z,5.53
2022-09-29T20:39:18.679Z,3.93
2022-09-29T20:41:46.866Z,5.00
2022-09-29T20:44:14.939Z,4.37
2022-09-29T20:46:43.869Z,4.13
2022-09-29T20:49:12.173Z,5.60
2022-09-29T20:51:40.251Z,4.30
2022-09-29T20:54:08.312Z,4.93
2022-09-29T20:56:41.646Z,3.77
2022-09-29T20:59:11.096Z,4.30
2022-09-29T21:01:39.328Z,6.27
2022-09-29T21:04:08.599Z,7.40
2022-09-29T21:06:37.188Z,4.57
2022-09-29T21:09:07.185Z,4.37
2022-09-29T21:11:41.802Z,5.87
2022-09-29T21:14:11.473Z,8.57
2022-09-29T21:16:41.866Z,4.43
2022-09-29T21:19:10.196Z,7.23
2022-09-29T21:21:38.277Z,4.47
2022-09-29T21:24:06.573Z,6.03
2022-09-29T21:26:34.658Z,4.60
2022-09-29T21:29:04.312Z,4.17
2022-09-29T21:31:33.342Z,4.33
2022-09-29T21:34:02.323Z,4.93
2022-09-29T21:36:31.253Z,5.23
2022-09-29T21:39:00.784Z,8.43
2022-09-29T21:41:32.146Z,4.67
2022-09-29T21:44:01.422Z,4.53
2022-09-29T21:46:31.489Z,4.40
2022-09-29T21:49:00.977Z,5.40
2022-09-29T21:51:29.942Z,4.63
2022-09-29T21:53:58.739Z,6.37
2022-09-29T21:56:28.894Z,6.03
2022-09-29T21:58:58.281Z,5.73
2022-09-29T22:01:26.731Z,6.33
2022-09-29T22:03:57.027Z,5.60
2022-09-29T22:06:25.862Z,5.13
2022-09-29T22:08:53.946Z,6.40
2022-09-29T22:11:23.699Z,5.10
2022-09-29T22:13:51.753Z,6.23
2022-09-29T22:16:21.914Z,4.77
2022-09-29T22:19:06.117Z,4.97
2022-09-29T22:21:40.282Z,5.20
2022-09-29T22:24:10.247Z,4.83
2022-09-29T22:26:38.684Z,6.90
2022-09-29T22:29:06.744Z,6.03
2022-09-29T22:31:34.928Z,6.07
2022-09-29T22:34:04.291Z,6.17
2022-09-29T22:36:33.408Z,6.73
2022-09-29T22:39:02.870Z,5.30
2022-09-29T22:41:30.979Z,4.90
2022-09-29T22:44:03.864Z,5.93
2022-09-29T22:46:32.120Z,5.27
2022-09-29T22:49:00.301Z,5.17
2022-09-29T22:51:28.531Z,4.97
2022-09-29T22:53:56.570Z,4.33
2022-09-29T22:56:28.944Z,5.37
2022-09-29T22:58:59.691Z,6.93
2022-09-29T23:01:27.882Z,6.23
2022-09-29T23:03:56.108Z,6.60
2022-09-29T23:06:24.245Z,6.33
2022-09-29T23:08:52.312Z,6.07
2022-09-29T23:11:20.743Z,7.30
2022-09-29T23:13:50.142Z,5.80
2022-09-29T23:16:18.502Z,7.50
2022-09-29T23:18:47.329Z,6.63
2022-09-29T23:21:17.845Z,6.93
2022-09-29T23:23:46.216Z,6.50
2022-09-29T23:26:14.904Z,6.33
2022-09-29T23:28:42.954Z,4.87
2022-09-29T23:31:12.623Z,4.80
2022-09-29T23:33:40.694Z,5.97
2022-09-29T23:36:09.577Z,6.43
2022-09-29T23:38:55.806Z,5.93
2022-09-29T23:41:27.118Z,6.53
2022-09-29T23:43:56.645Z,4.60
2022-09-29T23:46:26.600Z,4.73
2022-09-29T23:48:58.432Z,6.00
2022-09-29T23:51:26.516Z,4.97
2022-09-29T23:53:54.575Z,6.00
2022-09-29T23:56:22.624Z,7.43
2022-09-29T23:58:50.679Z,5.40
